createdAt,value
2023-01-19T02:49:03.799Z,503.00
2023-01-19T02:50:03.763Z,510.00
2023-01-19T02:51:03.755Z,505.00
2023-01-19T02:52:03.691Z,507.00
2023-01-19T02:53:03.659Z,502.00
2023-01-19T02:54:03.629Z,502.00
2023-01-19T02:55:03.599Z,504.00
2023-01-19T02:56:03.591Z,507.00
2023-01-19T02:57:03.547Z,507.00
2023-01-19T02:58:03.514Z,504.00
2023-01-19T02:59:03.479Z,504.00
2023-01-19T03:00:03.445Z,502.00
2023-01-19T03:01:03.487Z,511.00
2023-01-19T03:02:03.414Z,510.00
2023-01-19T03:03:03.756Z,508.00
2023-01-19T03:04:03.304Z,508.00
2023-01-19T03:05:04.983Z,509.00
2023-01-19T03:06:03.245Z,505.00
2023-01-19T03:07:03.226Z,509.00
2023-01-19T03:08:03.205Z,504.00
2023-01-19T03:09:03.179Z,503.00
2023-01-19T03:10:03.143Z,503.00
2023-01-19T03:11:03.110Z,507.00
2023-01-19T03:12:03.082Z,509.00
2023-01-19T03:13:03.401Z,511.00
2023-01-19T03:14:03.038Z,504.00
2023-01-19T03:15:03.005Z,503.00
2023-01-19T03:16:03.011Z,507.00
2023-01-19T03:17:02.932Z,503.00
2023-01-19T03:18:02.915Z,506.00
2023-01-19T03:19:02.875Z,508.00
2023-01-19T03:20:02.834Z,505.00
2023-01-19T03:21:02.803Z,505.00
2023-01-19T03:22:02.769Z,505.00
2023-01-19T03:23:03.200Z,500.00
2023-01-19T03:24:02.736Z,510.00
2023-01-19T03:25:02.714Z,508.00
2023-01-19T03:26:02.673Z,507.00
2023-01-19T03:27:02.650Z,503.00
2023-01-19T03:28:02.614Z,507.00
2023-01-19T03:29:02.605Z,511.00
2023-01-19T03:30:02.570Z,510.00
2023-01-19T03:31:02.577Z,507.00
2023-01-19T03:32:02.526Z,505.00
2023-01-19T03:33:02.898Z,509.00
2023-01-19T03:34:02.478Z,507.00
2023-01-19T03:35:02.457Z,505.00
2023-01-19T03:36:02.419Z,505.00
2023-01-19T03:37:02.401Z,508.00
2023-01-19T03:38:02.375Z,501.00
2023-01-19T03:39:02.346Z,509.00
2023-01-19T03:40:02.325Z,505.00
2023-01-19T03:41:02.311Z,506.00
2023-01-19T03:42:02.281Z,507.00
2023-01-19T03:43:02.714Z,508.00
2023-01-19T03:44:02.243Z,505.00
2023-01-19T03:45:02.250Z,506.00
2023-01-19T03:46:02.217Z,501.00
2023-01-19T03:47:02.154Z,503.00
2023-01-19T03:48:02.130Z,504.00
2023-01-19T03:49:02.117Z,511.00
2023-01-19T03:50:02.070Z,510.00
2023-01-19T03:51:02.059Z,508.00
2023-01-19T03:52:02.028Z,511.00
2023-01-19T03:53:02.591Z,506.00
2023-01-19T03:54:01.993Z,507.00
2023-01-19T03:55:01.956Z,507.00
2023-01-19T03:56:01.924Z,509.00
2023-01-19T03:57:01.893Z,511.00
2023-01-19T03:58:01.858Z,508.00
2023-01-19T03:59:01.844Z,507.00
2023-01-19T04:00:01.818Z,502.00
2023-01-19T04:01:01.823Z,507.00
2023-01-19T04:02:01.782Z,508.00
2023-01-19T04:03:02.237Z,507.00
2023-01-19T04:04:01.704Z,509.00
2023-01-19T04:05:01.706Z,508.00
2023-01-19T04:06:01.686Z,508.00
2023-01-19T04:07:01.643Z,505.00
2023-01-19T04:08:01.615Z,502.00
2023-01-19T04:09:01.594Z,504.00
2023-01-19T04:10:01.565Z,504.00
2023-01-19T04:11:01.563Z,505.00
2023-01-19T04:12:01.516Z,504.00
2023-01-19T04:13:01.861Z,501.00
2023-01-19T04:14:01.473Z,508.00
2023-01-19T04:15:01.460Z,510.00
2023-01-19T04:16:01.449Z,503.00
2023-01-19T04:17:01.377Z,504.00
2023-01-19T04:18:01.355Z,509.00
2023-01-19T04:19:01.324Z,503.00
2023-01-19T04:20:01.281Z,503.00
2023-01-19T04:21:01.249Z,512.00
2023-01-19T04:22:01.217Z,512.00
2023-01-19T04:23:01.768Z,505.00
2023-01-19T04:24:01.136Z,507.00
2023-01-19T04:25:01.117Z,505.00
2023-01-19T04:26:01.061Z,504.00
2023-01-19T04:27:01.037Z,507.00
2023-01-19T04:28:01.015Z,505.00
2023-01-19T04:29:00.969Z,507.00
2023-01-19T04:30:00.942Z,501.00
2023-01-19T04:31:00.962Z,511.00
2023-01-19T04:32:00.885Z,506.00
2023-01-19T04:33:01.245Z,502.00
2023-01-19T04:34:00.820Z,503.00
2023-01-19T04:35:00.791Z,503.00
2023-01-19T04:36:00.780Z,502.00
2023-01-19T04:37:00.717Z,504.00
2023-01-19T04:38:00.687Z,504.00
2023-01-19T04:39:00.668Z,504.00
2023-01-19T04:40:00.635Z,506.00
2023-01-19T04:41:00.615Z,504.00
2023-01-19T04:42:00.581Z,504.00
2023-01-19T04:43:00.984Z,509.00
2023-01-19T04:44:00.533Z,512.00
2023-01-19T04:45:00.501Z,508.00
2023-01-19T04:46:00.484Z,501.00
2023-01-19T04:47:00.433Z,509.00
2023-01-19T04:48:00.401Z,502.00
2023-01-19T04:49:00.371Z,506.00
2023-01-19T04:50:00.350Z,505.00
2023-01-19T04:51:00.329Z,510.00
2023-01-19T04:52:00.275Z,506.00
2023-01-19T04:53:00.682Z,507.00
2023-01-19T04:54:00.295Z,506.00
2023-01-19T04:55:00.175Z,508.00
2023-01-19T04:56:00.149Z,503.00
2023-01-19T04:57:00.159Z,505.00
2023-01-19T04:58:00.119Z,505.00
2023-01-19T04:59:00.110Z,505.00
2023-01-19T05:00:00.034Z,505.00
2023-01-19T05:01:00.015Z,503.00
2023-01-19T05:02:00.052Z,509.00
2023-01-19T05:03:00.459Z,505.00
2023-01-19T05:03:59.940Z,507.00
2023-01-19T05:04:59.888Z,505.00
2023-01-19T05:05:59.861Z,506.00
2023-01-19T05:06:59.846Z,508.00
2023-01-19T05:07:59.812Z,505.00
2023-01-19T05:08:59.789Z,501.00
2023-01-19T05:09:59.733Z,505.00
2023-01-19T05:10:59.701Z,506.00
2023-01-19T05:11:59.665Z,505.00
2023-01-19T05:12:59.958Z,503.00
2023-01-19T05:13:59.602Z,509.00
2023-01-19T05:14:59.571Z,509.00
2023-01-19T05:15:59.561Z,503.00
2023-01-19T05:16:59.500Z,509.00
2023-01-19T05:17:59.460Z,506.00
2023-01-19T05:18:59.428Z,508.00
2023-01-19T05:19:59.393Z,506.00
2023-01-19T05:20:59.361Z,510.00
2023-01-19T05:21:59.326Z,503.00
2023-01-19T05:22:59.605Z,507.00
2023-01-19T05:23:59.239Z,506.00
2023-01-19T05:24:59.204Z,507.00
2023-01-19T05:25:59.170Z,507.00
2023-01-19T05:26:59.243Z,508.00
2023-01-19T05:27:59.116Z,502.00
2023-01-19T05:28:59.082Z,511.00
2023-01-19T05:29:59.054Z,509.00
2023-01-19T05:30:59.150Z,509.00
2023-01-19T05:31:59.011Z,510.00
2023-01-19T05:32:59.311Z,512.00
2023-01-19T05:33:58.941Z,510.00
2023-01-19T05:34:58.904Z,507.00
2023-01-19T07:26:55.022Z,1067.00
2023-01-19T07:28:54.927Z,1095.00
2023-01-19T07:33:54.703Z,1167.00
2023-01-19T08:03:53.444Z,500.00
2023-01-19T08:06:53.338Z,512.00
2023-01-19T08:08:53.305Z,501.00
2023-01-19T08:09:53.258Z,500.00
2023-01-19T08:10:53.232Z,503.00
2023-01-19T08:11:53.209Z,614.00
2023-01-19T08:15:53.136Z,1859.00
2023-01-19T08:16:53.044Z,1696.00
2023-01-19T08:26:52.759Z,1268.00
2023-01-19T08:59:51.565Z,1490.00
2023-01-19T09:33:38.388Z,597.00
2023-01-19T09:34:38.324Z,599.00
2023-01-19T10:37:36.149Z,1593.00
2023-01-19T10:38:36.147Z,1599.00
2023-01-19T10:39:38.706Z,1605.00
2023-01-19T10:40:36.180Z,1628.00
2023-01-19T10:41:36.070Z,1632.00
2023-01-19T10:42:36.026Z,1420.00
2023-01-19T10:43:35.937Z,1506.00
2023-01-19T10:44:35.857Z,1491.00
2023-01-19T10:45:36.882Z,1507.00
2023-01-19T10:46:35.779Z,843.00
2023-01-19T10:47:35.752Z,502.00
2023-01-19T10:48:35.685Z,409.00
2023-01-19T10:49:35.721Z,400.00
2023-01-19T10:50:35.640Z,400.00
2023-01-19T10:51:35.615Z,400.00
2023-01-19T10:52:35.651Z,400.00
2023-01-19T10:53:35.599Z,400.00
2023-01-19T10:54:35.567Z,400.00
2023-01-19T10:55:35.578Z,400.00
2023-01-19T10:56:35.604Z,400.00
2023-01-19T10:57:35.558Z,400.00
2023-01-19T10:58:35.554Z,400.00
2023-01-19T10:59:35.526Z,400.00
2023-01-19T11:00:35.629Z,408.00
2023-01-19T11:01:35.652Z,430.00
2023-01-19T11:02:35.785Z,451.00
2023-01-19T11:03:35.601Z,453.00
2023-01-19T11:04:35.622Z,500.00
2023-01-19T11:05:35.518Z,473.00
2023-01-19T11:06:35.542Z,508.00
2023-01-19T11:07:35.499Z,515.00
2023-01-19T11:08:35.532Z,569.00
2023-01-19T11:09:35.513Z,607.00
2023-01-19T11:10:35.513Z,653.00
2023-01-19T11:11:35.520Z,996.00
2023-01-19T11:12:35.519Z,1206.00
2023-01-19T11:13:35.497Z,1327.00
2023-01-19T11:14:35.516Z,1589.00
2023-01-19T11:15:35.483Z,1568.00
2023-01-19T11:16:35.534Z,1764.00
2023-01-19T11:17:35.460Z,1835.00
2023-01-19T11:18:35.428Z,1905.00
2023-01-19T11:19:35.420Z,2020.00
2023-01-19T11:20:35.392Z,2101.00
2023-01-19T11:21:35.389Z,2131.00
2023-01-19T11:22:35.361Z,2158.00
2023-01-19T11:23:35.368Z,2160.00
2023-01-19T11:24:35.321Z,2174.00
2023-01-19T11:25:35.306Z,2199.00
2023-01-19T11:26:35.275Z,2284.00
2023-01-19T11:27:35.269Z,2373.00
2023-01-19T11:28:35.236Z,2417.00
2023-01-19T11:29:35.198Z,2461.00
2023-01-19T11:30:35.169Z,2502.00
2023-01-19T11:31:35.240Z,2531.00
2023-01-19T11:32:35.108Z,2559.00
2023-01-19T11:33:35.182Z,2593.00
2023-01-19T11:34:35.072Z,2610.00
2023-01-19T11:35:35.036Z,2640.00
2023-01-19T11:36:35.008Z,2677.00
2023-01-19T11:37:34.984Z,2707.00
2023-01-19T11:38:34.977Z,2735.00
2023-01-19T11:39:34.946Z,2764.00
2023-01-19T11:40:34.927Z,2782.00
2023-01-19T11:41:34.887Z,2141.00
2023-01-19T11:42:34.861Z,1249.00
2023-01-19T11:43:48.198Z,889.00
2023-01-19T11:44:35.845Z,665.00
2023-01-19T11:45:34.849Z,643.00
2023-01-19T11:46:34.818Z,822.00
2023-01-19T11:47:34.799Z,921.00
2023-01-19T11:48:34.791Z,1054.00
2023-01-19T11:49:34.801Z,1385.00
2023-01-19T11:50:34.786Z,1615.00
2023-01-19T11:51:34.790Z,1843.00
2023-01-19T11:52:34.763Z,2030.00
2023-01-19T11:53:34.764Z,2141.00
2023-01-19T11:54:34.764Z,2091.00
2023-01-19T11:55:34.763Z,2071.00
2023-01-19T11:56:34.732Z,2063.00
2023-01-19T11:57:34.710Z,2058.00
2023-01-19T11:58:34.700Z,2169.00
2023-01-19T11:59:34.668Z,2346.00
2023-01-19T12:00:34.668Z,2306.00
2023-01-19T12:01:34.668Z,2380.00
2023-01-19T12:02:34.710Z,2449.00
2023-01-19T12:03:34.655Z,2480.00
2023-01-19T12:04:34.572Z,2501.00
2023-01-19T12:05:34.560Z,2535.00
2023-01-19T12:06:34.507Z,2559.00
2023-01-19T12:07:34.487Z,2569.00
2023-01-19T12:08:34.472Z,2571.00
2023-01-19T12:09:34.441Z,2598.00
2023-01-19T12:10:34.409Z,2567.00
2023-01-19T12:11:34.389Z,2585.00
2023-01-19T12:12:34.401Z,2595.00
2023-01-19T12:13:34.349Z,2376.00
2023-01-19T12:14:34.337Z,2231.00
2023-01-19T12:15:34.347Z,1972.00
2023-01-19T12:16:34.335Z,1841.00
2023-01-19T12:17:34.298Z,1757.00
2023-01-19T12:18:34.229Z,1674.00
2023-01-19T12:19:34.218Z,1437.00
2023-01-19T12:20:34.198Z,1390.00
2023-01-19T12:21:34.191Z,1485.00
2023-01-19T12:22:34.211Z,1480.00
2023-01-19T12:23:34.157Z,1662.00
2023-01-19T12:24:34.212Z,1796.00
2023-01-19T12:25:34.125Z,1818.00
2023-01-19T12:26:34.101Z,1899.00
2023-01-19T12:27:34.104Z,1980.00
2023-01-19T12:28:34.092Z,2032.00
2023-01-19T12:29:34.030Z,2067.00
2023-01-19T12:30:34.132Z,2127.00
2023-01-19T12:31:34.104Z,2153.00
2023-01-19T12:32:33.981Z,2203.00
2023-01-19T12:33:33.928Z,2232.00
2023-01-19T12:34:33.900Z,2277.00
2023-01-19T12:35:33.882Z,2847.00
2023-01-19T12:36:33.879Z,2997.00
2023-01-19T12:37:33.842Z,2944.00
2023-01-19T12:38:33.830Z,2873.00
2023-01-19T12:39:33.805Z,2825.00
2023-01-19T12:40:33.770Z,2794.00
2023-01-19T12:41:33.770Z,2784.00
2023-01-19T12:42:33.876Z,2761.00
2023-01-19T12:43:33.722Z,2743.00
2023-01-19T12:44:33.698Z,2718.00
2023-01-19T12:45:33.682Z,2711.00
2023-01-19T12:46:33.683Z,2710.00
2023-01-19T12:47:33.625Z,2699.00
2023-01-19T12:48:33.615Z,2696.00
2023-01-19T12:49:33.603Z,2685.00
2023-01-19T12:50:33.540Z,2684.00
2023-01-19T12:51:33.517Z,2662.00
2023-01-19T12:52:33.566Z,2661.00
2023-01-19T12:53:33.462Z,2652.00
2023-01-19T12:54:33.429Z,2647.00
2023-01-19T12:55:33.417Z,2650.00
2023-01-19T12:56:33.354Z,2633.00
2023-01-19T12:57:33.322Z,2627.00
2023-01-19T12:58:33.286Z,2615.00
2023-01-19T12:59:33.277Z,2612.00
2023-01-19T13:00:33.226Z,2621.00
2023-01-19T13:01:33.308Z,2613.00
2023-01-19T13:02:33.220Z,2602.00
2023-01-19T13:03:33.163Z,2595.00
2023-01-19T13:04:33.140Z,2595.00
2023-01-19T13:05:33.675Z,2595.00
2023-01-19T13:06:33.095Z,2589.00
2023-01-19T13:07:33.065Z,2596.00
2023-01-19T13:08:33.033Z,2572.00
2023-01-19T13:09:33.022Z,2568.00
2023-01-19T13:10:32.970Z,2550.00
2023-01-19T13:11:34.723Z,2556.00
2023-01-19T13:12:32.900Z,2555.00
2023-01-19T13:13:32.875Z,2556.00
2023-01-19T13:14:32.863Z,2535.00
2023-01-19T13:15:32.890Z,2534.00
2023-01-19T13:16:32.792Z,2539.00
2023-01-19T13:17:32.769Z,2536.00
2023-01-19T13:18:32.742Z,2531.00
2023-01-19T13:19:32.702Z,2522.00
2023-01-19T13:20:32.678Z,2509.00
2023-01-19T13:21:32.770Z,2505.00
2023-01-19T13:22:32.636Z,2508.00
2023-01-19T13:23:32.613Z,2512.00
2023-01-19T13:24:32.589Z,2511.00
2023-01-19T13:25:32.566Z,2489.00
2023-01-19T13:26:32.541Z,2478.00
2023-01-19T13:27:32.512Z,2475.00
2023-01-19T13:28:32.505Z,2486.00
2023-01-19T13:29:32.459Z,2477.00
2023-01-19T13:30:32.470Z,2478.00
2023-01-19T13:31:32.448Z,2471.00
2023-01-19T13:32:32.380Z,2472.00
2023-01-19T13:33:32.374Z,2460.00
2023-01-19T13:34:32.320Z,2467.00
2023-01-19T13:35:32.291Z,2471.00
2023-01-19T13:36:32.267Z,2455.00
2023-01-19T13:37:32.236Z,2443.00
2023-01-19T13:38:32.206Z,2439.00
2023-01-19T13:39:32.184Z,2439.00
2023-01-19T13:40:32.155Z,2441.00
2023-01-19T13:41:32.119Z,2444.00
2023-01-19T13:42:32.131Z,2427.00
2023-01-19T13:43:32.058Z,2429.00
2023-01-19T13:44:32.035Z,2407.00
2023-01-19T13:45:32.018Z,2418.00
2023-01-19T13:46:32.047Z,2421.00
2023-01-19T13:47:31.947Z,2421.00
2023-01-19T13:48:31.907Z,2396.00
2023-01-19T13:49:31.869Z,2399.00
2023-01-19T13:50:31.844Z,2390.00
2023-01-19T13:51:31.811Z,2394.00
2023-01-19T13:52:31.829Z,2397.00
2023-01-19T13:53:31.767Z,2375.00
2023-01-19T13:54:31.723Z,2377.00
2023-01-19T13:55:31.704Z,2361.00
2023-01-19T13:56:31.684Z,2360.00
2023-01-19T13:57:31.634Z,2362.00
2023-01-19T13:58:31.671Z,2373.00
2023-01-19T13:59:31.575Z,2359.00
2023-01-19T14:00:31.543Z,2359.00
2023-01-19T14:01:31.670Z,2354.00
2023-01-19T14:02:31.629Z,2354.00
2023-01-19T14:03:31.508Z,2356.00
2023-01-19T14:04:31.443Z,2349.00
2023-01-19T14:05:31.377Z,2329.00
2023-01-19T14:06:31.346Z,2326.00
2023-01-19T14:07:31.365Z,2333.00
2023-01-19T14:08:31.318Z,2326.00
2023-01-19T14:09:31.323Z,2337.00
2023-01-19T14:10:31.278Z,2315.00
2023-01-19T14:11:31.205Z,2310.00
2023-01-19T14:12:31.179Z,2309.00
2023-01-19T14:13:31.152Z,2308.00
2023-01-19T14:14:31.150Z,2313.00
2023-01-19T14:15:31.110Z,2311.00
2023-01-19T14:16:31.142Z,2303.00
2023-01-19T14:17:31.063Z,2293.00
2023-01-19T14:18:31.073Z,2282.00
2023-01-19T14:19:31.068Z,2289.00
2023-01-19T14:20:30.991Z,2288.00
2023-01-19T14:21:30.973Z,2288.00
2023-01-19T14:22:30.939Z,2272.00
2023-01-19T14:23:30.923Z,2276.00
2023-01-19T14:24:30.897Z,2266.00
2023-01-19T14:25:30.868Z,2271.00
2023-01-19T14:26:30.834Z,2282.00
2023-01-19T14:27:30.817Z,2273.00
2023-01-19T14:28:30.778Z,2258.00
2023-01-19T14:29:32.799Z,2252.00
2023-01-19T14:30:30.724Z,2254.00
2023-01-19T14:31:30.746Z,2251.00
2023-01-19T14:32:30.680Z,2254.00
2023-01-19T14:33:30.634Z,2247.00
2023-01-19T14:34:30.605Z,2238.00
2023-01-19T14:35:30.575Z,2234.00
2023-01-19T14:36:30.531Z,2237.00
2023-01-19T14:37:30.512Z,2232.00
2023-01-19T14:38:30.457Z,2230.00
2023-01-19T14:39:30.438Z,2216.00
2023-01-19T14:40:30.380Z,2217.00
2023-01-19T14:41:30.382Z,2217.00
2023-01-19T14:42:30.326Z,2221.00
2023-01-19T14:43:30.293Z,2224.00
2023-01-19T14:44:30.281Z,2220.00
2023-01-19T14:45:30.233Z,2214.00
2023-01-19T14:46:30.219Z,2214.00
2023-01-19T14:47:30.194Z,2211.00
2023-01-19T14:48:30.141Z,2212.00
2023-01-19T14:49:30.136Z,2213.00
2023-01-19T14:50:30.069Z,2207.00
2023-01-19T14:51:30.111Z,2204.00
2023-01-19T14:52:30.061Z,2198.00
2023-01-19T14:53:29.982Z,2192.00
2023-01-19T14:54:29.955Z,2200.00
2023-01-19T14:55:29.918Z,2196.00
2023-01-19T14:56:29.900Z,2190.00
2023-01-19T14:57:29.854Z,2191.00
2023-01-19T14:58:29.813Z,2191.00
2023-01-19T14:59:29.820Z,2190.00
2023-01-19T15:00:29.778Z,2193.00
2023-01-19T15:01:29.883Z,2194.00
2023-01-19T15:02:29.747Z,2190.00
2023-01-19T15:03:43.565Z,2190.00
2023-01-19T15:04:30.645Z,2191.00
2023-01-19T15:05:29.609Z,2192.00
2023-01-19T15:06:29.579Z,2190.00
2023-01-19T15:07:29.555Z,2184.00
2023-01-19T15:08:29.516Z,2180.00
2023-01-19T15:09:29.504Z,2177.00
2023-01-19T15:10:29.471Z,2172.00
2023-01-19T15:11:29.433Z,2174.00
2023-01-19T15:12:29.400Z,2176.00
2023-01-19T15:13:29.376Z,2170.00
2023-01-19T15:14:29.341Z,2166.00
2023-01-19T15:15:29.313Z,2150.00
2023-01-19T15:16:29.466Z,2162.00
2023-01-19T15:17:29.246Z,2162.00
2023-01-19T15:18:29.225Z,2158.00
2023-01-19T15:19:29.194Z,2150.00
2023-01-19T15:20:29.184Z,2146.00
2023-01-19T15:21:29.142Z,2150.00
2023-01-19T15:22:29.103Z,2146.00
2023-01-19T15:23:29.067Z,2138.00
2023-01-19T15:24:29.036Z,2140.00
2023-01-19T15:25:28.998Z,2137.00
2023-01-19T15:26:28.945Z,2137.00
2023-01-19T15:27:28.911Z,2136.00
2023-01-19T16:34:26.915Z,2166.00
2023-01-19T16:35:26.871Z,2176.00
2023-01-19T16:36:26.862Z,2167.00
2023-01-19T16:37:28.117Z,2171.00
2023-01-19T16:38:26.861Z,2165.00
2023-01-19T16:39:26.756Z,2167.00
2023-01-19T16:40:26.721Z,2170.00
2023-01-19T16:41:26.704Z,2171.00
2023-01-19T16:42:26.673Z,2167.00
2023-01-19T16:43:28.293Z,2173.00
2023-01-19T16:44:26.637Z,2167.00
2023-01-19T16:45:26.625Z,2157.00
2023-01-19T16:46:26.579Z,2166.00
2023-01-19T16:47:26.550Z,2154.00
2023-01-19T16:48:26.518Z,2159.00
2023-01-19T16:49:28.378Z,2159.00
2023-01-19T16:50:26.445Z,2158.00
2023-01-19T16:51:26.412Z,2156.00
2023-01-19T16:52:26.395Z,2160.00
2023-01-19T16:53:26.365Z,2158.00
2023-01-19T16:54:26.339Z,2153.00
2023-01-19T16:55:26.311Z,2148.00
2023-01-19T16:56:26.291Z,2160.00
2023-01-19T16:57:26.277Z,2156.00
2023-01-19T16:58:26.246Z,2165.00
2023-01-19T16:59:26.208Z,2155.00
2023-01-19T17:00:26.180Z,2160.00
2023-01-19T17:01:26.227Z,2162.00
2023-01-19T17:02:26.154Z,2162.00
2023-01-19T17:03:26.080Z,2153.00
2023-01-19T17:04:26.058Z,2157.00
2023-01-19T17:05:26.053Z,2155.00
2023-01-19T17:06:26.012Z,2156.00
2023-01-19T17:07:25.982Z,2148.00
2023-01-19T17:08:25.952Z,2146.00
2023-01-19T17:09:25.918Z,2151.00
2023-01-19T17:10:25.891Z,2148.00
2023-01-19T17:11:25.861Z,2149.00
2023-01-19T17:12:25.845Z,2143.00
2023-01-19T17:13:25.811Z,2143.00
2023-01-19T17:14:25.788Z,2144.00
2023-01-19T17:15:25.776Z,2145.00
2023-01-19T17:16:25.791Z,2142.00
2023-01-19T17:17:25.710Z,2143.00
2023-01-19T17:18:25.692Z,2144.00
2023-01-19T17:19:26.813Z,2145.00
2023-01-19T17:20:25.651Z,2144.00
2023-01-19T17:21:25.629Z,2144.00
2023-01-19T17:22:25.597Z,2139.00
2023-01-19T17:23:25.572Z,2146.00
2023-01-19T17:24:25.540Z,2146.00
2023-01-19T17:25:25.515Z,2148.00
2023-01-19T17:26:25.515Z,2139.00
2023-01-19T17:27:25.467Z,2138.00
2023-01-19T17:28:25.447Z,2136.00
2023-01-19T17:29:25.411Z,2137.00
2023-01-19T17:30:25.519Z,2138.00
2023-01-19T17:31:25.432Z,2138.00
2023-01-19T17:32:25.315Z,2132.00
2023-01-19T17:33:25.292Z,2130.00
2023-01-19T17:34:25.260Z,2130.00
2023-01-19T17:35:25.231Z,2128.00
2023-01-19T17:36:25.219Z,2126.00
2023-01-19T17:37:25.171Z,2124.00
2023-01-19T17:38:25.137Z,2124.00
2023-01-19T17:39:25.111Z,2117.00
2023-01-19T17:40:25.092Z,2126.00
2023-01-19T17:41:25.072Z,2121.00
2023-01-19T17:42:25.042Z,2124.00
2023-01-19T17:43:25.012Z,2123.00
2023-01-19T17:44:25.017Z,2114.00
2023-01-19T17:45:24.957Z,2114.00
2023-01-19T17:46:24.993Z,2117.00
2023-01-19T17:47:24.914Z,2121.00
2023-01-19T17:48:24.894Z,2107.00
2023-01-19T17:49:24.875Z,2111.00
2023-01-19T17:50:24.851Z,2104.00
2023-01-19T17:51:24.823Z,2099.00
2023-01-19T17:52:24.810Z,2105.00
2023-01-19T17:53:24.784Z,2101.00
2023-01-19T17:54:24.759Z,2106.00
2023-01-19T17:55:24.730Z,2113.00
2023-01-19T17:56:24.703Z,2110.00
2023-01-19T17:57:24.671Z,2109.00
2023-01-19T17:58:24.647Z,2103.00
2023-01-19T17:59:24.623Z,2095.00
2023-01-19T18:00:24.592Z,2105.00
2023-01-19T18:01:24.776Z,2105.00
2023-01-19T18:02:24.644Z,2102.00
2023-01-19T18:03:24.530Z,2098.00
2023-01-19T18:04:24.503Z,2093.00
2023-01-19T18:05:24.479Z,2098.00
2023-01-19T18:06:24.454Z,2094.00
2023-01-19T18:07:24.431Z,2096.00
2023-01-19T18:08:24.401Z,2092.00
2023-01-19T18:09:24.424Z,2090.00
2023-01-19T18:10:24.349Z,2086.00
2023-01-19T18:11:24.321Z,2089.00
2023-01-19T18:12:24.303Z,2082.00
2023-01-19T18:13:24.265Z,2077.00
2023-01-19T18:14:24.244Z,2079.00
2023-01-19T18:15:24.207Z,2077.00
2023-01-19T18:16:24.197Z,2078.00
2023-01-19T18:17:24.151Z,2077.00
2023-01-19T18:18:24.117Z,2066.00
2023-01-19T18:19:24.087Z,2074.00
2023-01-19T18:20:24.054Z,2067.00
2023-01-19T18:21:24.039Z,2068.00
2023-01-19T18:22:23.997Z,2055.00
2023-01-19T18:23:23.962Z,2049.00
2023-01-19T18:24:23.940Z,2046.00
2023-01-19T18:25:23.902Z,2038.00
2023-01-19T18:26:23.884Z,2042.00
2023-01-19T18:27:23.865Z,2028.00
2023-01-19T18:28:23.832Z,2028.00
2023-01-19T18:29:23.818Z,2030.00
2023-01-19T18:30:23.805Z,2026.00
2023-01-19T18:31:23.806Z,2021.00
2023-01-19T18:32:25.264Z,2010.00
2023-01-19T18:33:23.894Z,2012.00
2023-01-19T18:34:23.857Z,2006.00
2023-01-19T18:35:23.848Z,2006.00
2023-01-19T18:36:23.813Z,1995.00
2023-01-19T18:37:23.808Z,1985.00
2023-01-19T18:38:23.767Z,1983.00
2023-01-19T18:39:23.740Z,1983.00
2023-01-19T18:40:23.718Z,1977.00
2023-01-19T18:41:23.780Z,1967.00
2023-01-19T18:42:23.666Z,1965.00
2023-01-19T18:43:23.613Z,1965.00
2023-01-19T18:44:23.580Z,1957.00
2023-01-19T18:45:23.551Z,1951.00
2023-01-19T18:46:23.555Z,1945.00
2023-01-19T18:47:23.493Z,1942.00
2023-01-19T18:48:23.474Z,1934.00
2023-01-19T18:49:23.441Z,1924.00
2023-01-19T18:50:23.411Z,1920.00
2023-01-19T18:51:23.390Z,1907.00
2023-01-19T18:52:23.356Z,1916.00
2023-01-19T18:53:23.367Z,1909.00
2023-01-19T18:54:23.303Z,1907.00
2023-01-19T18:55:23.265Z,1897.00
2023-01-19T18:56:23.233Z,1895.00
2023-01-19T18:57:23.192Z,1898.00
2023-01-19T18:58:23.176Z,1888.00
2023-01-19T18:59:23.147Z,1889.00
2023-01-19T19:00:23.104Z,1888.00
2023-01-19T19:01:23.151Z,1889.00
2023-01-19T19:02:23.060Z,1888.00
2023-01-19T19:03:23.002Z,1872.00
2023-01-19T19:04:22.967Z,1878.00
2023-01-19T19:05:22.964Z,1878.00
2023-01-19T19:06:22.908Z,1873.00
2023-01-19T19:07:22.863Z,1868.00
2023-01-19T19:08:22.859Z,1864.00
2023-01-19T19:09:22.797Z,1864.00
2023-01-19T19:10:22.803Z,1867.00
2023-01-19T19:11:22.799Z,1867.00
2023-01-19T19:12:22.696Z,1858.00
2023-01-19T19:13:22.657Z,1859.00
2023-01-19T19:14:22.623Z,1857.00
2023-01-19T19:15:22.597Z,1859.00
2023-01-19T19:16:22.639Z,1856.00
2023-01-19T19:17:22.511Z,1866.00
2023-01-19T19:18:22.501Z,1871.00
2023-01-19T19:19:22.456Z,1868.00
2023-01-19T19:20:22.397Z,1874.00
2023-01-19T19:21:22.363Z,1878.00
2023-01-19T19:22:25.374Z,1873.00
2023-01-19T19:23:22.294Z,1897.00
2023-01-19T19:24:22.260Z,1889.00
2023-01-19T19:25:22.224Z,1885.00
2023-01-19T19:26:22.195Z,1888.00
2023-01-19T19:27:22.165Z,1887.00
2023-01-19T19:28:22.139Z,1897.00
2023-01-19T19:29:22.114Z,1892.00
2023-01-19T19:30:22.194Z,1894.00
2023-01-19T19:31:22.068Z,1893.00
2023-01-19T19:32:22.037Z,1889.00
2023-01-19T19:33:21.993Z,1892.00
2023-01-19T19:34:21.973Z,1891.00
2023-01-19T19:35:21.948Z,1901.00
2023-01-19T19:36:21.917Z,1888.00
2023-01-19T19:37:21.893Z,1891.00
2023-01-19T19:38:21.846Z,1897.00
2023-01-19T19:39:21.811Z,1897.00
2023-01-19T19:40:21.779Z,1895.00
2023-01-19T19:41:21.749Z,1893.00
2023-01-19T19:42:21.730Z,1890.00
2023-01-19T19:43:21.727Z,1897.00
2023-01-19T19:44:21.679Z,1895.00
2023-01-19T19:45:21.651Z,1890.00
2023-01-19T19:46:21.659Z,1889.00
2023-01-19T19:47:21.574Z,1875.00
2023-01-19T19:48:21.564Z,1879.00
2023-01-19T19:49:21.520Z,1879.00
2023-01-19T19:50:21.508Z,1874.00
2023-01-19T19:51:21.474Z,1865.00
2023-01-19T19:52:21.438Z,1861.00
2023-01-19T19:53:21.466Z,1855.00
2023-01-19T19:54:21.383Z,1853.00
2023-01-19T19:55:21.445Z,1852.00
2023-01-19T19:56:21.653Z,1848.00
2023-01-19T19:57:21.338Z,1837.00
2023-01-19T19:58:21.274Z,1839.00
2023-01-19T19:59:21.247Z,1824.00
2023-01-19T20:00:21.215Z,1829.00
2023-01-19T20:01:21.352Z,1832.00
2023-01-19T20:02:21.183Z,1820.00
2023-01-19T20:03:21.144Z,1813.00
2023-01-19T20:04:21.171Z,1816.00
2023-01-19T20:05:21.148Z,1815.00
2023-01-19T20:06:21.089Z,1808.00
2023-01-19T20:07:21.049Z,1815.00
2023-01-19T20:08:21.030Z,1789.00
2023-01-19T20:09:21.015Z,1794.00
2023-01-19T20:10:20.990Z,1795.00
2023-01-19T20:11:20.977Z,1789.00
2023-01-19T20:12:20.947Z,1794.00
2023-01-19T20:13:20.917Z,1784.00
2023-01-19T20:14:20.890Z,1773.00
2023-01-19T20:15:20.873Z,1777.00
2023-01-19T20:16:20.929Z,1778.00
2023-01-19T20:17:20.855Z,1768.00
2023-01-19T20:18:20.794Z,1776.00
2023-01-19T20:19:20.765Z,1773.00
2023-01-19T20:20:20.740Z,1766.00
2023-01-19T20:21:20.719Z,1770.00
2023-01-19T20:22:20.690Z,1764.00
2023-01-19T20:23:20.673Z,1764.00
2023-01-19T20:24:20.651Z,1768.00
2023-01-19T20:25:20.617Z,1762.00
2023-01-19T20:26:20.578Z,1748.00
2023-01-19T20:27:20.571Z,1760.00
2023-01-19T20:28:20.522Z,1753.00
2023-01-19T20:29:20.509Z,1757.00
2023-01-19T20:30:20.503Z,1759.00
2023-01-19T20:31:20.512Z,1748.00
2023-01-19T20:32:20.453Z,1753.00
2023-01-19T20:33:20.393Z,1745.00
2023-01-19T20:34:20.375Z,1744.00
2023-01-19T20:35:20.354Z,1749.00
2023-01-19T20:36:20.326Z,1744.00
2023-01-19T20:37:20.316Z,1742.00
2023-01-19T20:38:20.280Z,1739.00
2023-01-19T20:39:20.280Z,1739.00
2023-01-19T20:40:20.235Z,1740.00
2023-01-19T20:41:20.220Z,1737.00
2023-01-19T20:42:20.182Z,1741.00
2023-01-19T20:43:20.174Z,1740.00
2023-01-19T20:44:20.171Z,1732.00
2023-01-19T20:45:20.102Z,1738.00
2023-01-19T20:46:20.073Z,1743.00
2023-01-19T20:47:20.055Z,1740.00
2023-01-19T20:48:20.035Z,1735.00
2023-01-19T20:49:20.021Z,1733.00
2023-01-19T20:50:19.982Z,1728.00
2023-01-19T20:51:19.957Z,1731.00
2023-01-19T20:52:19.930Z,1735.00
2023-01-19T20:53:19.897Z,1734.00